createdAt,value
2019-05-30T00:03:51.322Z,2.18
2019-05-30T00:08:59.016Z,2.78
2019-05-30T00:14:06.788Z,3.60
2019-05-30T00:19:14.824Z,1.51
2019-05-30T00:24:22.522Z,3.12
2019-05-30T00:29:30.157Z,2.33
2019-05-30T00:34:37.977Z,2.14
2019-05-30T00:39:45.788Z,2.11
2019-05-30T00:44:55.844Z,3.95
2019-05-30T00:49:54.282Z,2.05
2019-05-30T00:55:05.078Z,2.93
2019-05-30T01:00:03.054Z,2.65
2019-05-30T01:05:10.645Z,2.92
2019-05-30T01:10:18.320Z,3.28
2019-05-30T01:15:27.417Z,1.79
2019-05-30T01:20:35.064Z,2.57
2019-05-30T01:25:42.835Z,2.76
2019-05-30T01:30:59.676Z,2.99
2019-05-30T01:35:57.880Z,2.37
2019-05-30T01:41:05.932Z,2.63
2019-05-30T01:46:12.971Z,1.62
2019-05-30T01:51:20.673Z,2.82
2019-05-30T01:56:28.301Z,2.02
2019-05-30T02:01:36.133Z,2.38
2019-05-30T02:06:44.701Z,2.58
2019-05-30T02:11:52.505Z,1.88
2019-05-30T02:17:01.509Z,3.15
2019-05-30T02:22:09.763Z,2.11
2019-05-30T02:27:15.879Z,1.62
2019-05-30T02:32:23.604Z,3.03
2019-05-30T02:37:31.313Z,2.59
2019-05-30T02:42:39.346Z,1.97
2019-05-30T02:47:49.281Z,2.45
2019-05-30T02:52:56.981Z,2.39
2019-05-30T02:58:06.206Z,1.96
2019-05-30T03:03:14.498Z,1.79
2019-05-30T03:08:20.766Z,2.61
2019-05-30T03:13:28.738Z,1.90
2019-05-30T03:18:36.418Z,2.36
2019-05-30T03:23:44.265Z,3.27
2019-05-30T03:28:53.519Z,2.40
2019-05-30T03:33:59.207Z,3.02
2019-05-30T03:39:07.711Z,5.84
2019-05-30T03:44:15.681Z,2.85
2019-05-30T03:49:22.131Z,2.27
2019-05-30T03:54:29.944Z,2.99
2019-05-30T03:59:37.640Z,2.37
2019-05-30T04:04:45.678Z,3.46
2019-05-30T04:09:53.494Z,3.38
2019-05-30T04:15:01.278Z,4.75
2019-05-30T04:20:09.836Z,3.01
2019-05-30T04:25:16.778Z,4.19
2019-05-30T04:30:23.753Z,3.43
2019-05-30T04:35:31.435Z,3.03
2019-05-30T04:40:39.137Z,6.44
2019-05-30T04:45:46.928Z,4.87
2019-05-30T04:50:54.789Z,4.23
2019-05-30T04:56:02.535Z,5.01
2019-05-30T05:01:11.005Z,3.92
2019-05-30T05:06:17.932Z,3.85
2019-05-30T05:11:25.505Z,4.45
2019-05-30T05:16:36.076Z,4.40
2019-05-30T05:21:39.396Z,6.41
2019-05-30T05:26:47.428Z,4.60
2019-05-30T05:31:55.138Z,4.84
2019-05-30T05:37:03.010Z,5.40
2019-05-30T05:42:10.589Z,5.44
2019-05-30T05:47:21.124Z,4.95
2019-05-30T05:52:18.892Z,5.06
2019-05-30T05:57:26.636Z,4.91
2019-05-30T06:02:34.265Z,4.65
2019-05-30T06:07:41.926Z,7.01
2019-05-30T06:12:49.612Z,6.76
2019-05-30T06:17:57.276Z,4.91
2019-05-30T06:23:05.017Z,7.68
2019-05-30T06:28:12.763Z,7.44
2019-05-30T06:33:20.765Z,7.70
2019-05-30T06:38:29.506Z,7.21
2019-05-30T06:43:35.636Z,7.29
2019-05-30T06:48:43.345Z,7.95
2019-05-30T06:53:51.176Z,10.07
2019-05-30T06:58:59.012Z,7.41
2019-05-30T07:04:07.395Z,8.25
2019-05-30T07:09:14.749Z,10.59
2019-05-30T07:14:23.070Z,7.79
2019-05-30T07:19:29.953Z,9.05
2019-05-30T07:24:38.615Z,9.61
2019-05-30T07:29:46.477Z,9.08
2019-05-30T07:35:06.019Z,8.68
2019-05-30T07:40:01.589Z,9.31
2019-05-30T07:45:09.234Z,11.37
2019-05-30T07:50:17.740Z,11.28
2019-05-30T07:55:25.382Z,8.76
2019-05-30T08:00:33.576Z,9.59
2019-05-30T08:05:40.493Z,9.77
2019-05-30T08:10:48.289Z,9.33
2019-05-30T08:15:56.016Z,8.45
2019-05-30T08:21:03.706Z,8.13
2019-05-30T08:26:11.540Z,9.14
2019-05-30T08:31:19.288Z,8.65
2019-05-30T08:36:26.998Z,8.19
2019-05-30T08:41:35.301Z,9.01
2019-05-30T08:46:42.206Z,8.63
2019-05-30T08:51:50.049Z,7.63
2019-05-30T08:56:57.665Z,9.96
2019-05-30T09:02:05.628Z,10.07
2019-05-30T09:07:13.225Z,8.13
2019-05-30T09:12:22.051Z,7.76
2019-05-30T09:17:29.707Z,9.70
2019-05-30T09:22:39.408Z,8.60
2019-05-30T09:27:45.312Z,7.59
2019-05-30T09:32:52.196Z,7.52
2019-05-30T09:37:59.849Z,8.41
2019-05-30T09:43:07.685Z,7.68
2019-05-30T09:48:15.348Z,7.39
2019-05-30T09:53:23.121Z,7.43
2019-05-30T09:58:30.842Z,8.00
2019-05-30T10:03:38.586Z,7.39
2019-05-30T10:08:47.731Z,7.08
2019-05-30T10:13:53.514Z,8.05
2019-05-30T10:19:01.158Z,7.94
2019-05-30T10:24:09.034Z,7.72
2019-05-30T10:29:16.774Z,8.10
2019-05-30T10:34:24.478Z,8.10
2019-05-30T10:39:32.240Z,8.36
2019-05-30T10:44:40.014Z,7.57
2019-05-30T10:49:48.552Z,10.37
2019-05-30T10:54:55.643Z,7.18
2019-05-30T11:00:03.261Z,8.61
2019-05-30T11:05:11.276Z,7.39
2019-05-30T11:10:18.913Z,8.01
2019-05-30T11:15:26.725Z,7.26
2019-05-30T11:20:34.373Z,6.90
2019-05-30T11:25:42.954Z,7.52
2019-05-30T11:30:50.729Z,7.25
2019-05-30T11:35:59.269Z,8.31
2019-05-30T11:41:05.825Z,7.95
2019-05-30T11:46:13.565Z,7.67
2019-05-30T11:51:22.274Z,8.21
2019-05-30T11:56:29.875Z,9.53
2019-05-30T12:01:37.657Z,7.57
2019-05-30T12:06:45.317Z,8.45
2019-05-30T12:11:53.493Z,9.06
2019-05-30T12:17:01.593Z,7.77
2019-05-30T12:22:08.724Z,8.18
2019-05-30T12:27:16.269Z,8.29
2019-05-30T12:32:24.069Z,11.10
2019-05-30T12:37:31.743Z,7.79
2019-05-30T12:42:39.450Z,8.49
2019-05-30T12:47:47.208Z,8.67
2019-05-30T12:52:55.508Z,9.10
2019-05-30T12:58:02.873Z,10.71
2019-05-30T13:03:09.832Z,8.05
2019-05-30T13:08:21.689Z,8.74
2019-05-30T13:13:25.031Z,8.51
2019-05-30T13:18:33.674Z,8.55
2019-05-30T13:23:41.550Z,8.43
2019-05-30T13:28:49.154Z,9.03
2019-05-30T13:33:57.110Z,9.76
2019-05-30T13:39:05.268Z,8.66
2019-05-30T13:44:13.745Z,10.72
2019-05-30T13:49:21.425Z,9.47
2019-05-30T13:54:29.153Z,9.21
2019-05-30T13:59:36.885Z,9.43
2019-05-30T14:04:44.658Z,9.15
2019-05-30T14:09:55.438Z,12.63
2019-05-30T14:14:53.167Z,9.43
2019-05-30T14:20:00.919Z,9.57
2019-05-30T14:25:09.658Z,9.71
2019-05-30T14:30:16.003Z,9.87
2019-05-30T14:35:23.769Z,10.36
2019-05-30T14:40:31.447Z,9.12
2019-05-30T14:45:39.270Z,6.99
2019-05-30T14:50:46.889Z,8.18
2019-05-30T14:55:54.753Z,9.09
2019-05-30T15:01:02.401Z,8.55
2019-05-30T15:06:12.885Z,8.56
2019-05-30T15:11:17.271Z,8.72
2019-05-30T15:16:25.010Z,8.81
2019-05-30T15:21:32.764Z,8.16
2019-05-30T15:26:40.614Z,7.86
2019-05-30T15:31:48.209Z,8.52
2019-05-30T15:36:55.948Z,9.47
2019-05-30T15:42:03.545Z,8.57
2019-05-30T15:47:12.116Z,9.21
2019-05-30T15:52:19.713Z,9.36
2019-05-30T15:57:27.377Z,9.27
2019-05-30T16:02:35.105Z,8.46
2019-05-30T16:07:42.908Z,9.81
2019-05-30T16:12:50.749Z,8.46
2019-05-30T16:17:58.391Z,9.62
2019-05-30T16:23:06.224Z,8.25
2019-05-30T16:28:14.060Z,8.36
2019-05-30T16:33:22.174Z,8.96
2019-05-30T16:38:29.733Z,9.45
2019-05-30T16:43:38.350Z,8.25
2019-05-30T16:48:46.140Z,10.58
2019-05-30T16:53:53.833Z,8.87
2019-05-30T16:59:01.581Z,8.92
2019-05-30T17:04:09.625Z,9.53
2019-05-30T17:09:17.429Z,10.77
2019-05-30T17:14:26.007Z,10.67
2019-05-30T17:19:33.987Z,11.51
2019-05-30T17:24:41.752Z,9.77
2019-05-30T17:29:49.431Z,9.20
2019-05-30T17:34:57.046Z,9.25
2019-05-30T17:40:04.734Z,10.42
2019-05-30T17:45:12.477Z,8.91
2019-05-30T17:50:21.659Z,9.61
2019-05-30T17:55:28.024Z,11.96
2019-05-30T18:00:35.393Z,11.05
2019-05-30T18:05:43.055Z,11.66
2019-05-30T18:10:53.607Z,11.28
2019-05-30T18:15:58.205Z,10.63
2019-05-30T18:21:06.049Z,10.21
2019-05-30T18:26:13.665Z,10.94
2019-05-30T18:31:21.880Z,10.43
2019-05-30T18:36:30.518Z,11.89
2019-05-30T18:41:39.851Z,12.06
2019-05-30T18:46:38.642Z,10.57
2019-05-30T18:51:44.718Z,11.50
2019-05-30T18:56:52.556Z,10.95
2019-05-30T19:02:00.272Z,12.11
2019-05-30T19:07:07.960Z,11.46
2019-05-30T19:12:15.529Z,10.47
2019-05-30T19:17:23.191Z,13.49
2019-05-30T19:22:32.103Z,10.71
2019-05-30T19:27:38.605Z,10.05
2019-05-30T19:32:45.326Z,10.92
2019-05-30T19:37:52.971Z,11.23
2019-05-30T19:43:01.497Z,11.49
2019-05-30T19:48:10.048Z,13.34
2019-05-30T19:53:17.724Z,14.72
2019-05-30T19:58:25.393Z,13.10
2019-05-30T20:03:36.484Z,15.79
2019-05-30T20:09:23.130Z,15.61
2019-05-30T20:14:31.026Z,14.69
2019-05-30T20:19:39.886Z,15.80
2019-05-30T20:24:45.900Z,15.01
2019-05-30T20:29:53.598Z,13.64
2019-05-30T20:35:01.326Z,17.01
2019-05-30T20:40:09.205Z,17.92
2019-05-30T20:45:17.006Z,17.75
2019-05-30T20:50:24.683Z,15.60
2019-05-30T20:55:32.615Z,18.09
2019-05-30T21:00:40.521Z,17.34
2019-05-30T21:05:47.527Z,17.69
2019-05-30T21:10:55.218Z,17.24
2019-05-30T21:16:02.918Z,18.01
2019-05-30T21:21:10.656Z,19.12
2019-05-30T21:26:18.391Z,19.29
2019-05-30T21:31:26.030Z,18.75
2019-05-30T21:36:33.674Z,18.40
2019-05-30T21:41:42.238Z,17.94
2019-05-30T21:46:49.077Z,19.70
2019-05-30T21:51:56.150Z,21.78
2019-05-30T21:57:04.733Z,20.60
2019-05-30T22:02:12.389Z,19.69
2019-05-30T22:07:20.153Z,23.53
2019-05-30T22:12:27.840Z,19.08
2019-05-30T22:17:35.594Z,20.36
2019-05-30T22:22:43.890Z,20.47
2019-05-30T22:27:50.656Z,22.56
2019-05-30T22:32:58.306Z,21.04
2019-05-30T22:38:05.973Z,22.31
2019-05-30T22:43:24.864Z,24.93
2019-05-30T22:48:20.863Z,22.99
2019-05-30T22:53:28.521Z,22.57
2019-05-30T22:58:36.193Z,24.83
2019-05-30T23:03:44.961Z,23.48
2019-05-30T23:08:50.926Z,25.64
2019-05-30T23:13:58.533Z,23.87
2019-05-30T23:19:06.208Z,23.47
2019-05-30T23:24:13.993Z,24.36
2019-05-30T23:29:21.986Z,23.85
2019-05-30T23:34:29.657Z,23.33
2019-05-30T23:39:37.298Z,25.32
2019-05-30T23:44:45.007Z,22.28
2019-05-30T23:49:53.828Z,24.15
2019-05-30T23:55:02.313Z,21.58
